Airport View

Enter AWOS ICAO identifier for current METAR.

ex. KFNL

KAAO 250954Z AUTO 03008KT 10SM OVC011 03/01 A3008 RMK AO2 SLP196 T00330006

25 Oct 2020 10:23

Frequency: 134.025

Phone: 316-636-2541

Other Area AWOS: KBEC - K1K1 - KIAB - K3AU

TAF KIAB 250900Z 2509/2615 05009KT 9999 SCT010 OVC020 620202 QNH3006INS BECMG 2520/2521 01012G18KT 8000 -SHRA BKN015 QNH3008INS BECMG 2602/2603 01015G20KT 8000 -FZDZ BKN006 660001 650066 520803 QNH3018INS BECMG 2605/2606 01020G25KT 8000 -FZRA OVC006 690001 650066 520433 QNH3027INS TX04/2519Z TNM01/2607Z LAST NO AMDS AFT 2509 NEXT 2610